Time;durP1;ratioP1;P1;durP2;ratioP2;P2;SDS_P1;SDS_P2;PMS_P1;PMS_P2;Temp;Humidity;BMP_temperature;BMP_pressure;BME280_temperature;BME280_humidity;BME280_pressure;Samples;Min_cycle;Max_cycle;Signal;HPM_P1;HPM_P2
2023/01/10 00:02:54;;;;;;;0.00;0.00;;;-1.70;99.90;;;;;;21132821;28;20040;-59
2023/01/10 00:23:17;;;;;;;0.00;0.00;;;-1.80;99.90;;;;;;21115597;28;20456;-59
2023/01/10 00:33:18;;;;;;;0.43;0.00;;;-1.90;99.90;;;;;;21106553;28;20082;-59
2023/01/10 00:53:40;;;;;;;0.05;0.00;;;-2.00;99.90;;;;;;21141507;28;20085;-59
2023/01/10 01:03:41;;;;;;;0.20;0.00;;;-2.00;99.90;;;;;;21136586;28;20040;-59
2023/01/10 01:13:43;;;;;;;0.20;0.10;;;-1.70;99.90;;;;;;21142419;28;20035;-55
2023/01/10 01:23:44;;;;;;;0.30;0.10;;;-1.70;99.90;;;;;;21142115;28;20032;-59
2023/01/10 01:33:46;;;;;;;0.00;0.00;;;-1.70;99.90;;;;;;21114328;28;20023;-59
2023/01/10 01:43:58;;;;;;;0.25;0.00;;;-1.60;99.90;;;;;;21147841;28;20031;-54
2023/01/10 01:54:06;;;;;;;0.28;0.00;;;-1.30;99.90;;;;;;21100117;28;20117;-59
2023/01/10 02:04:16;;;;;;;0.13;0.00;;;-1.20;99.90;;;;;;21113967;28;20044;-59
2023/01/10 02:14:19;;;;;;;0.20;0.00;;;-1.30;99.90;;;;;;21154758;28;20039;-59
2023/01/10 02:24:26;;;;;;;0.32;0.00;;;-1.50;99.90;;;;;;21137687;28;20054;-59
2023/01/10 02:34:56;;;;;;;0.00;0.00;;;-1.50;99.90;;;;;;21123146;28;20428;-59
2023/01/10 02:45:01;;;;;;;0.15;0.00;;;-1.50;99.90;;;;;;21144595;28;20093;-59
2023/01/10 02:55:04;;;;;;;0.20;0.00;;;-1.30;99.90;;;;;;21119941;28;20082;-59
2023/01/10 03:05:07;;;;;;;0.20;0.00;;;-1.20;99.90;;;;;;21144090;28;20048;-58
2023/01/10 03:15:12;;;;;;;0.20;0.00;;;-1.40;99.90;;;;;;21083725;28;20376;-59
2023/01/10 03:25:16;;;;;;;0.03;0.00;;;-1.60;99.90;;;;;;21125710;28;20084;-59
2023/01/10 03:35:21;;;;;;;0.55;0.00;;;-1.20;99.90;;;;;;21132323;28;20028;-59
2023/01/10 03:45:50;;;;;;;0.00;0.00;;;-0.40;99.90;;;;;;21110261;28;20044;-58
2023/01/10 03:55:52;;;;;;;0.17;0.00;;;0.10;99.90;;;;;;21137614;28;20035;-59
2023/01/10 04:05:54;;;;;;;0.00;0.00;;;-0.30;99.90;;;;;;21141608;28;20032;-59
2023/01/10 04:15:59;;;;;;;0.00;0.00;;;-1.10;99.90;;;;;;21157090;28;20090;-59
2023/01/10 04:26:00;;;;;;;0.00;0.00;;;-1.30;99.90;;;;;;21155549;28;20039;-59
2023/01/10 04:36:02;;;;;;;0.10;0.00;;;-1.60;99.90;;;;;;21144699;28;20040;-59
2023/01/10 04:46:04;;;;;;;0.00;0.00;;;-1.40;99.90;;;;;;21153298;27;20052;-58
2023/01/10 04:56:07;;;;;;;0.10;0.00;;;-1.40;99.90;;;;;;21136870;28;20534;-59
2023/01/10 05:06:09;;;;;;;0.00;0.00;;;-1.50;99.90;;;;;;21151905;28;20046;-59
2023/01/10 05:16:11;;;;;;;0.28;0.00;;;-1.50;99.90;;;;;;21115199;28;20462;-59
2023/01/10 05:26:22;;;;;;;0.10;0.00;;;-1.50;99.90;;;;;;21152620;28;20027;-58
2023/01/10 05:36:23;;;;;;;;;;;-1.60;99.90;;;;;;21131271;28;20480;-59
2023/01/10 05:46:25;;;;;;;0.38;0.00;;;-1.70;99.90;;;;;;21144927;28;19912;-59
2023/01/10 05:56:27;;;;;;;0.10;0.00;;;-1.80;99.90;;;;;;21151979;28;20028;-59
2023/01/10 06:06:29;;;;;;;0.20;0.00;;;-2.00;99.90;;;;;;21130152;28;20032;-59
2023/01/10 06:16:31;;;;;;;0.00;0.00;;;-2.10;99.90;;;;;;21124509;28;20102;-59
2023/01/10 06:26:32;;;;;;;0.00;0.00;;;-1.70;99.90;;;;;;21085395;28;20113;-58
2023/01/10 06:36:34;;;;;;;0.10;0.00;;;-1.20;99.90;;;;;;21128173;28;20054;-59
2023/01/10 06:46:35;;;;;;;0.00;0.00;;;-1.10;99.90;;;;;;21123475;28;20044;-58
2023/01/10 06:56:37;;;;;;;0.05;0.00;;;-0.80;99.90;;;;;;21150932;28;20035;-59
2023/01/10 07:06:40;;;;;;;0.00;0.00;;;0.00;99.90;;;;;;21136021;28;20027;-58
2023/01/10 07:16:42;;;;;;;0.00;0.00;;;0.90;99.90;;;;;;21137407;28;20032;-59
2023/01/10 07:26:43;;;;;;;0.00;0.00;;;1.10;99.90;;;;;;21166521;28;20028;-59
2023/01/10 07:36:45;;;;;;;0.00;0.00;;;1.20;99.90;;;;;;21149386;28;20032;-54
2023/01/10 07:46:46;;;;;;;0.43;0.00;;;1.60;99.70;;;;;;21135261;28;20044;-59
2023/01/10 07:56:49;;;;;;;0.00;0.00;;;1.60;99.60;;;;;;21122451;28;20024;-52
2023/01/10 08:06:53;;;;;;;0.10;0.00;;;2.10;98.10;;;;;;21157400;28;20027;-58
2023/01/10 08:16:55;;;;;;;0.00;0.00;;;2.60;98.10;;;;;;21140213;28;20035;-57
2023/01/10 08:27:00;;;;;;;0.00;0.00;;;3.10;94.90;;;;;;21163955;28;20447;-57
2023/01/10 08:37:02;;;;;;;0.00;0.00;;;3.40;96.00;;;;;;21144627;28;20039;-53
2023/01/10 08:47:03;;;;;;;0.00;0.00;;;3.60;94.20;;;;;;21124883;28;20464;-54
2023/01/10 08:57:05;;;;;;;0.20;0.00;;;4.00;93.30;;;;;;21119599;28;20501;-57
2023/01/10 09:07:06;;;;;;;0.00;0.00;;;4.20;93.20;;;;;;21115704;28;20050;-55
2023/01/10 09:17:08;;;;;;;0.00;0.00;;;4.50;93.30;;;;;;21141980;28;20055;-58
2023/01/10 09:27:10;;;;;;;0.38;0.00;;;4.60;90.60;;;;;;21157772;28;20112;-58
2023/01/10 09:37:12;;;;;;;0.35;0.00;;;4.70;90.60;;;;;;21139180;28;20361;-58
2023/01/10 09:47:42;;;;;;;0.00;0.00;;;5.00;84.90;;;;;;21087255;28;20052;-58
2023/01/10 09:57:44;;;;;;;0.60;0.00;;;5.20;83.40;;;;;;21135642;28;20036;-59
2023/01/10 10:07:52;;;;;;;0.65;0.00;;;5.20;91.00;;;;;;21146758;28;20047;-58
2023/01/10 10:18:09;;;;;;;0.00;0.00;;;5.40;83.50;;;;;;21138400;28;20392;-56
2023/01/10 10:28:36;;;;;;;0.03;0.00;;;5.80;79.10;;;;;;21154792;28;20476;-58
2023/01/10 10:38:42;;;;;;;0.00;0.00;;;5.70;75.00;;;;;;21135117;28;20027;-50
2023/01/10 10:48:53;;;;;;;0.57;0.00;;;5.90;77.60;;;;;;21136652;28;20048;-58
2023/01/10 10:58:57;;;;;;;0.60;0.00;;;6.00;74.50;;;;;;21152585;28;20036;-60
2023/01/10 11:09:01;;;;;;;0.10;0.00;;;5.90;81.10;;;;;;21143778;28;20073;-56
2023/01/10 11:19:28;;;;;;;0.00;0.00;;;5.90;81.60;;;;;;21137500;28;20074;-58
2023/01/10 11:29:38;;;;;;;1.50;0.00;;;5.70;83.50;;;;;;21140948;28;20488;-55
2023/01/10 11:39:40;;;;;;;0.00;0.00;;;5.80;83.70;;;;;;21132923;28;20032;-56
2023/01/10 11:49:42;;;;;;;0.93;0.10;;;6.40;83.90;;;;;;21138879;28;20846;-56
2023/01/10 11:59:56;;;;;;;0.20;0.00;;;6.40;84.70;;;;;;21146254;28;20120;-57
2023/01/10 12:10:02;;;;;;;2.05;0.00;;;6.40;84.70;;;;;;21122179;28;20028;-57
2023/01/10 12:20:13;;;;;;;0.57;0.00;;;6.30;86.40;;;;;;21138850;28;20417;-58
2023/01/10 12:30:40;;;;;;;0.17;0.00;;;6.40;83.50;;;;;;21125451;28;20020;-60
2023/01/10 13:03:48;;;;;;;0.00;0.00;;;6.50;77.20;;;;;;21339852;27;20644;-53
2023/01/10 13:14:05;;;;;;;0.20;0.00;;;6.40;80.40;;;;;;21231691;27;20044;-59
2023/01/10 13:24:26;;;;;;;0.05;0.00;;;6.10;79.70;;;;;;21001513;28;20032;-61
2023/01/10 13:34:34;;;;;;;0.13;0.00;;;5.80;84.10;;;;;;21016040;28;20036;-61
2023/01/10 13:45:01;;;;;;;0.20;0.10;;;5.60;87.70;;;;;;20994427;28;20118;-61
2023/01/10 13:55:27;;;;;;;0.10;0.00;;;5.20;86.80;;;;;;21013134;28;20049;-61
2023/01/10 14:05:29;;;;;;;0.10;0.00;;;4.90;84.20;;;;;;21015059;28;20033;-61
2023/01/10 14:15:40;;;;;;;0.20;0.00;;;4.80;84.50;;;;;;20996158;28;20043;-61
2023/01/10 14:25:43;;;;;;;0.00;0.00;;;4.70;84.40;;;;;;20996199;28;20181;-61
2023/01/10 14:35:53;;;;;;;0.40;0.10;;;4.70;83.70;;;;;;20994514;28;20024;-61
2023/01/10 14:46:15;;;;;;;0.57;0.10;;;4.50;85.80;;;;;;20976299;28;20066;-61
2023/01/10 14:56:37;;;;;;;0.13;0.00;;;4.30;86.10;;;;;;20994070;28;20045;-60
2023/01/10 15:06:54;;;;;;;0.00;0.00;;;4.10;84.40;;;;;;20975094;28;20032;-60
2023/01/10 15:17:00;;;;;;;0.35;0.10;;;4.00;85.60;;;;;;20906827;28;20439;-61
2023/01/10 15:27:07;;;;;;;0.10;0.00;;;3.30;89.00;;;;;;20954778;28;20419;-60
2023/01/10 15:37:20;;;;;;;0.00;0.00;;;3.00;88.60;;;;;;20935008;28;20523;-60
2023/01/10 15:47:39;;;;;;;0.00;0.00;;;2.70;88.90;;;;;;20989367;28;20036;-61
2023/01/10 15:57:40;;;;;;;0.00;0.00;;;2.80;87.90;;;;;;20988759;28;20557;-61
2023/01/10 16:07:48;;;;;;;0.28;0.00;;;2.80;88.50;;;;;;20984229;28;20035;-60
2023/01/10 16:17:51;;;;;;;0.00;0.00;;;2.70;86.40;;;;;;20940699;28;20059;-60
2023/01/10 16:27:55;;;;;;;0.00;0.00;;;2.70;85.10;;;;;;20953304;28;20037;-61
2023/01/10 16:37:57;;;;;;;0.30;0.00;;;2.60;85.40;;;;;;20985329;28;20055;-60
2023/01/10 16:47:58;;;;;;;0.00;0.00;;;2.40;82.90;;;;;;20985852;28;20392;-60
2023/01/10 16:58:00;;;;;;;0.00;0.00;;;2.50;82.50;;;;;;20928983;28;20053;-60
2023/01/10 17:08:02;;;;;;;2.20;0.00;;;2.20;82.70;;;;;;20966584;28;20062;-60
2023/01/10 17:18:04;;;;;;;0.20;0.00;;;2.40;78.80;;;;;;20883987;28;20025;-60
2023/01/10 17:28:05;;;;;;;0.00;0.00;;;2.60;75.50;;;;;;20880424;28;20036;-60
2023/01/10 17:38:13;;;;;;;0.00;0.00;;;2.60;77.00;;;;;;20924553;28;20040;-60
2023/01/10 17:48:17;;;;;;;0.00;0.00;;;2.50;78.90;;;;;;20912543;28;20537;-60
2023/01/10 17:58:20;;;;;;;0.13;0.00;;;2.00;80.10;;;;;;20898609;28;20045;-60
2023/01/10 18:08:22;;;;;;;0.38;0.00;;;1.70;82.20;;;;;;20858039;28;20040;-60
2023/01/10 18:18:26;;;;;;;0.52;0.08;;;1.60;83.40;;;;;;20840436;28;20091;-60
2023/01/10 18:28:38;;;;;;;0.10;0.00;;;1.80;81.40;;;;;;20913275;28;20025;-60
2023/01/10 18:38:40;;;;;;;0.30;0.00;;;1.70;81.80;;;;;;20871770;28;20025;-60
2023/01/10 18:48:42;;;;;;;0.03;0.00;;;1.60;81.80;;;;;;20858881;28;20076;-60
2023/01/10 18:58:44;;;;;;;0.00;0.00;;;1.50;82.40;;;;;;20910319;28;20398;-60
2023/01/10 19:08:46;;;;;;;0.00;0.00;;;1.40;78.70;;;;;;20909487;28;20422;-60
2023/01/10 19:18:52;;;;;;;0.10;0.00;;;1.70;78.00;;;;;;20908776;28;20033;-60
2023/01/10 19:28:57;;;;;;;0.00;0.00;;;1.70;78.20;;;;;;20909382;28;20535;-60
2023/01/10 19:39:12;;;;;;;0.00;0.00;;;1.70;77.20;;;;;;20836193;28;20091;-60
2023/01/10 19:49:18;;;;;;;0.50;0.00;;;1.70;76.80;;;;;;20824266;28;20044;-60
2023/01/10 19:59:20;;;;;;;0.00;0.00;;;1.50;78.00;;;;;;20860996;28;20054;-60
2023/01/10 20:09:22;;;;;;;0.00;0.00;;;1.60;77.40;;;;;;20894465;28;20036;-60
2023/01/10 20:19:23;;;;;;;0.00;0.00;;;1.40;77.30;;;;;;20882851;28;20032;-60
2023/01/10 20:29:25;;;;;;;1.10;0.00;;;1.20;80.00;;;;;;20811629;28;20064;-60
2023/01/10 20:39:29;;;;;;;0.00;0.00;;;1.20;77.90;;;;;;20816159;28;20088;-60
2023/01/10 20:49:30;;;;;;;0.15;0.00;;;1.20;80.00;;;;;;20828450;28;20037;-60
2023/01/10 20:59:32;;;;;;;0.40;0.00;;;1.10;78.80;;;;;;20906197;28;20053;-60
2023/01/10 21:09:40;;;;;;;0.00;0.00;;;1.30;78.50;;;;;;20881472;28;20025;-60
2023/01/10 21:20:00;;;;;;;0.35;0.00;;;1.20;77.80;;;;;;20861354;28;20060;-60
2023/01/10 21:30:04;;;;;;;0.00;0.00;;;1.00;78.40;;;;;;20827042;28;20041;-60
2023/01/10 21:40:07;;;;;;;0.47;0.00;;;1.10;77.70;;;;;;20886725;28;20513;-60
2023/01/10 21:50:11;;;;;;;0.03;0.00;;;1.00;78.00;;;;;;20958991;28;20043;-60
2023/01/10 22:00:13;;;;;;;0.00;0.00;;;0.80;77.50;;;;;;20916023;28;20041;-60
2023/01/10 22:10:15;;;;;;;0.08;0.00;;;1.00;74.50;;;;;;20915837;28;20413;-60
2023/01/10 22:20:17;;;;;;;0.00;0.00;;;0.90;79.90;;;;;;20913223;28;20057;-60
2023/01/10 22:30:19;;;;;;;0.60;0.00;;;0.70;78.70;;;;;;20887733;28;20096;-60
2023/01/10 22:40:21;;;;;;;0.10;0.00;;;0.60;77.10;;;;;;20908600;28;20280;-60
2023/01/10 22:50:23;;;;;;;0.00;0.00;;;0.50;78.10;;;;;;20912314;28;20493;-60
2023/01/10 23:00:24;;;;;;;0.00;0.00;;;0.30;77.20;;;;;;20911476;28;20044;-60
2023/01/10 23:10:26;;;;;;;0.00;0.00;;;0.50;78.70;;;;;;20911161;28;20040;-60
2023/01/10 23:20:27;;;;;;;1.25;0.00;;;0.40;78.60;;;;;;20909576;28;20033;-60
2023/01/10 23:30:29;;;;;;;1.55;0.00;;;0.40;76.50;;;;;;20909281;28;20024;-60
2023/01/10 23:40:31;;;;;;;0.30;0.00;;;0.60;76.40;;;;;;20907736;28;20040;-60
2023/01/10 23:50:32;;;;;;;0.00;0.00;;;0.40;78.60;;;;;;20952870;28;20040;-59
